createdAt,value
2018-03-21T00:00:39.896Z,0.00
2018-03-21T00:01:39.908Z,0.00
2018-03-21T00:02:39.890Z,0.00
2018-03-21T00:03:39.892Z,0.00
2018-03-21T00:04:39.884Z,0.00
2018-03-21T00:05:39.876Z,0.00
2018-03-21T00:06:39.865Z,0.00
2018-03-21T00:07:39.866Z,0.00
2018-03-21T00:08:39.853Z,0.00
2018-03-21T00:09:39.860Z,0.00
2018-03-21T00:10:39.848Z,0.00
2018-03-21T00:11:39.837Z,0.00
2018-03-21T00:12:39.838Z,0.00
2018-03-21T00:13:39.839Z,0.00
2018-03-21T00:14:39.821Z,0.00
2018-03-21T00:15:39.832Z,0.00
2018-03-21T00:16:39.810Z,0.00
2018-03-21T00:17:39.821Z,0.00
2018-03-21T00:18:39.807Z,0.00
2018-03-21T00:19:39.800Z,0.00
2018-03-21T00:20:39.796Z,0.00
2018-03-21T00:21:39.792Z,0.00
2018-03-21T00:22:39.783Z,0.00
2018-03-21T00:23:39.787Z,0.00
2018-03-21T00:24:39.771Z,0.00
2018-03-21T00:25:39.771Z,0.00
2018-03-21T00:26:39.781Z,0.00
2018-03-21T00:27:39.752Z,0.00
2018-03-21T00:28:39.746Z,0.00
2018-03-21T00:29:39.746Z,0.00
2018-03-21T00:30:39.745Z,0.00
2018-03-21T00:31:39.731Z,0.00
2018-03-21T00:32:39.735Z,0.00
2018-03-21T00:33:39.727Z,0.00
2018-03-21T00:34:39.723Z,0.00
2018-03-21T00:35:39.713Z,0.00
2018-03-21T00:36:39.710Z,0.00
2018-03-21T00:37:39.695Z,0.00
2018-03-21T00:38:39.692Z,0.00
2018-03-21T00:39:39.701Z,0.00
2018-03-21T00:40:39.701Z,0.00
2018-03-21T00:41:39.681Z,0.00
2018-03-21T00:42:39.685Z,0.00
2018-03-21T00:43:39.674Z,0.00
2018-03-21T00:44:39.666Z,0.00
2018-03-21T00:45:39.662Z,0.00
2018-03-21T00:46:39.661Z,0.00
2018-03-21T00:47:39.645Z,0.00
2018-03-21T00:48:39.649Z,0.00
2018-03-21T00:49:39.644Z,0.00
2018-03-21T00:50:39.622Z,0.00
2018-03-21T00:51:39.636Z,0.00
2018-03-21T00:52:39.626Z,0.00
2018-03-21T00:53:39.608Z,0.00
2018-03-21T00:54:39.607Z,0.00
2018-03-21T00:55:39.599Z,0.00
2018-03-21T00:56:39.600Z,0.00
2018-03-21T00:57:39.601Z,0.00
2018-03-21T00:58:39.591Z,0.00
2018-03-21T00:59:39.581Z,0.00
2018-03-21T01:00:39.583Z,0.00
2018-03-21T01:01:39.596Z,0.00
2018-03-21T01:02:39.573Z,0.00
2018-03-21T01:03:39.561Z,0.00
2018-03-21T01:04:39.551Z,0.00
2018-03-21T01:05:39.556Z,0.00
2018-03-21T01:06:39.545Z,0.00
2018-03-21T01:07:39.566Z,0.00
2018-03-21T01:08:39.528Z,0.00
2018-03-21T01:09:39.532Z,0.00
2018-03-21T01:10:39.525Z,0.00
2018-03-21T01:11:39.526Z,0.00
2018-03-21T01:12:39.521Z,0.00
2018-03-21T01:13:39.502Z,0.00
2018-03-21T01:14:39.507Z,0.00
2018-03-21T01:15:39.502Z,0.00
2018-03-21T01:16:39.497Z,0.00
2018-03-21T01:17:39.488Z,0.00
2018-03-21T01:18:39.476Z,0.00
2018-03-21T01:19:39.489Z,0.00
2018-03-21T01:20:39.478Z,0.00
2018-03-21T01:21:39.472Z,0.00
2018-03-21T01:22:39.461Z,0.00
2018-03-21T01:23:39.463Z,0.00
2018-03-21T01:24:39.469Z,0.00
2018-03-21T01:25:39.447Z,0.00
2018-03-21T01:26:39.442Z,0.00
2018-03-21T01:27:39.434Z,0.00
2018-03-21T01:28:39.424Z,0.00
2018-03-21T01:29:39.445Z,0.00
2018-03-21T01:30:39.433Z,0.00
2018-03-21T01:31:39.421Z,0.00
2018-03-21T01:32:39.404Z,0.00
2018-03-21T01:33:39.401Z,0.00
2018-03-21T01:34:39.410Z,0.00
2018-03-21T01:35:39.394Z,0.00
2018-03-21T01:36:39.384Z,0.00
2018-03-21T01:37:39.382Z,0.00
2018-03-21T01:38:39.373Z,0.00
2018-03-21T01:39:39.375Z,0.00
2018-03-21T01:40:39.362Z,0.00
2018-03-21T01:41:39.359Z,0.00
2018-03-21T01:42:39.362Z,0.00
2018-03-21T01:43:39.367Z,0.00
2018-03-21T01:44:39.351Z,0.00
2018-03-21T01:45:39.338Z,0.00
2018-03-21T01:46:39.323Z,0.00
2018-03-21T01:47:39.339Z,0.00
2018-03-21T01:48:39.320Z,0.00
2018-03-21T01:49:39.321Z,0.00
2018-03-21T01:50:39.303Z,0.00
2018-03-21T01:51:39.310Z,0.00
2018-03-21T01:52:39.302Z,0.00
2018-03-21T01:53:39.292Z,0.00
2018-03-21T01:54:39.291Z,0.00
2018-03-21T01:55:39.289Z,0.00
2018-03-21T01:56:39.276Z,0.00
2018-03-21T01:57:39.274Z,0.00
2018-03-21T01:58:39.269Z,0.00
2018-03-21T01:59:39.257Z,0.00
2018-03-21T02:00:39.254Z,0.00
2018-03-21T02:01:39.265Z,0.00
2018-03-21T02:02:39.248Z,0.00
2018-03-21T02:03:39.250Z,0.00
2018-03-21T02:04:39.239Z,0.00
2018-03-21T02:05:39.238Z,0.00
2018-03-21T02:06:39.228Z,0.00
2018-03-21T02:07:39.218Z,0.00
2018-03-21T02:08:39.208Z,0.00
2018-03-21T02:09:39.217Z,0.00
2018-03-21T02:10:39.204Z,0.00
2018-03-21T02:11:39.199Z,0.00
2018-03-21T02:12:39.186Z,0.00
2018-03-21T02:13:39.188Z,0.00
2018-03-21T02:14:39.182Z,0.00
2018-03-21T02:15:39.180Z,0.00
2018-03-21T02:16:39.169Z,0.00
2018-03-21T02:17:39.171Z,0.00
2018-03-21T02:18:39.159Z,0.00
2018-03-21T02:19:39.158Z,0.00
2018-03-21T02:20:39.151Z,0.00
2018-03-21T02:21:39.151Z,0.00
2018-03-21T02:22:39.153Z,0.00
2018-03-21T02:23:39.122Z,0.00
2018-03-21T02:24:39.126Z,0.00
2018-03-21T02:25:39.112Z,0.00
2018-03-21T02:26:39.116Z,0.00
2018-03-21T02:27:39.174Z,0.00
2018-03-21T02:28:39.107Z,0.00
2018-03-21T02:29:39.100Z,0.00
2018-03-21T02:30:39.138Z,0.00
2018-03-21T02:31:39.084Z,0.00
2018-03-21T02:32:39.093Z,0.00
2018-03-21T02:33:39.080Z,0.00
2018-03-21T02:34:39.075Z,0.00
2018-03-21T02:35:39.077Z,0.00
2018-03-21T02:36:39.060Z,0.00
2018-03-21T02:37:39.064Z,0.00
2018-03-21T02:38:39.050Z,0.00
2018-03-21T02:39:39.054Z,0.00
2018-03-21T02:40:39.039Z,0.00
2018-03-21T02:41:39.031Z,0.00
2018-03-21T02:42:39.037Z,0.00
2018-03-21T02:43:39.029Z,0.00
2018-03-21T02:44:39.020Z,0.00
2018-03-21T02:45:39.015Z,0.00
2018-03-21T02:46:39.005Z,0.00
2018-03-21T02:47:39.008Z,0.00
2018-03-21T02:48:39.015Z,0.00
2018-03-21T02:49:39.003Z,0.00
2018-03-21T02:50:38.988Z,0.00
2018-03-21T02:51:38.980Z,0.00
2018-03-21T02:52:38.983Z,0.00
2018-03-21T02:53:38.972Z,0.00
2018-03-21T02:54:38.968Z,0.00
2018-03-21T02:55:38.961Z,0.00
2018-03-21T02:56:38.954Z,0.00
2018-03-21T02:57:38.953Z,0.00
2018-03-21T02:58:38.940Z,0.00
2018-03-21T02:59:38.943Z,0.00
2018-03-21T03:00:38.933Z,0.00
2018-03-21T03:01:38.933Z,0.00
2018-03-21T03:02:38.923Z,0.00
2018-03-21T03:03:38.910Z,0.00
2018-03-21T03:04:38.913Z,0.00
2018-03-21T03:05:38.920Z,0.00
2018-03-21T03:06:38.898Z,0.00
2018-03-21T03:07:38.894Z,0.00
2018-03-21T03:08:38.888Z,0.00
2018-03-21T03:09:38.890Z,0.00
2018-03-21T03:10:38.878Z,0.00
2018-03-21T03:11:38.877Z,0.00
2018-03-21T03:12:38.863Z,0.00
2018-03-21T03:13:38.880Z,0.00
2018-03-21T03:14:38.859Z,0.00
2018-03-21T03:15:38.843Z,0.00
2018-03-21T03:16:38.844Z,0.00
2018-03-21T03:17:38.839Z,0.00
2018-03-21T03:18:38.834Z,0.00
2018-03-21T03:19:38.833Z,0.00
2018-03-21T03:20:38.820Z,0.00
2018-03-21T03:21:38.819Z,0.00
2018-03-21T03:22:38.817Z,0.00
2018-03-21T03:23:38.808Z,0.00
2018-03-21T03:24:38.803Z,0.00
2018-03-21T03:25:38.804Z,0.00
2018-03-21T03:26:38.789Z,0.00
2018-03-21T03:27:38.787Z,0.00
2018-03-21T03:28:38.778Z,0.00
2018-03-21T03:29:38.782Z,0.00
2018-03-21T03:30:38.766Z,0.00
2018-03-21T03:31:38.764Z,0.00
2018-03-21T03:32:38.759Z,0.00
2018-03-21T03:33:38.750Z,0.00
2018-03-21T03:34:38.768Z,0.00
2018-03-21T03:35:38.738Z,0.00
2018-03-21T03:36:38.736Z,0.00
2018-03-21T03:37:38.735Z,0.00
2018-03-21T03:38:38.728Z,0.00
2018-03-21T03:39:38.733Z,0.00
2018-03-21T03:40:38.719Z,0.00
2018-03-21T03:41:38.700Z,0.00
2018-03-21T03:42:38.723Z,0.00
2018-03-21T03:43:38.703Z,0.00
2018-03-21T03:44:38.688Z,0.00
2018-03-21T03:45:38.689Z,0.00
2018-03-21T03:46:38.680Z,0.00
2018-03-21T03:47:38.674Z,0.00
2018-03-21T03:48:38.664Z,0.00
2018-03-21T03:49:38.678Z,0.00
2018-03-21T03:50:38.665Z,0.00
2018-03-21T03:51:38.660Z,0.00
2018-03-21T03:52:38.652Z,0.00
2018-03-21T03:53:38.645Z,0.00
2018-03-21T03:54:38.638Z,0.00
2018-03-21T03:55:38.639Z,0.00
2018-03-21T03:56:38.629Z,0.00
2018-03-21T03:57:38.630Z,0.00
2018-03-21T03:58:38.620Z,0.00
2018-03-21T03:59:38.625Z,0.00
2018-03-21T04:00:38.606Z,0.00
2018-03-21T04:01:38.605Z,0.00
2018-03-21T04:02:38.593Z,0.00
2018-03-21T04:03:38.597Z,0.00
2018-03-21T04:04:38.585Z,0.00
2018-03-21T04:05:38.583Z,0.00
2018-03-21T04:06:38.585Z,0.00
2018-03-21T04:07:38.574Z,0.00
2018-03-21T04:08:38.564Z,0.00
2018-03-21T04:09:38.561Z,0.00
2018-03-21T04:10:38.564Z,0.00
2018-03-21T04:11:38.547Z,0.00
2018-03-21T04:12:38.540Z,0.00
2018-03-21T04:13:38.534Z,0.00
2018-03-21T04:14:38.533Z,0.00
2018-03-21T04:15:38.532Z,0.00
2018-03-21T04:16:38.523Z,0.00
2018-03-21T04:17:38.518Z,0.00
2018-03-21T04:18:38.514Z,0.00
2018-03-21T04:19:38.506Z,0.00
2018-03-21T04:20:38.510Z,0.00
2018-03-21T04:21:38.505Z,0.00
2018-03-21T04:22:38.488Z,0.00
2018-03-21T04:23:38.491Z,0.00
2018-03-21T04:24:38.490Z,0.00
2018-03-21T04:25:38.478Z,0.00
2018-03-21T04:26:38.470Z,0.00
2018-03-21T04:27:38.473Z,0.00
2018-03-21T04:28:38.470Z,0.00
2018-03-21T04:29:38.451Z,0.00
2018-03-21T04:30:38.447Z,0.00
2018-03-21T04:31:38.444Z,0.00
2018-03-21T04:32:38.431Z,0.00
2018-03-21T04:33:38.445Z,0.00
2018-03-21T04:34:38.430Z,0.00
2018-03-21T04:35:38.423Z,0.00
2018-03-21T04:36:38.411Z,0.00
2018-03-21T04:37:38.406Z,0.00
2018-03-21T04:38:38.410Z,0.00
2018-03-21T04:39:38.398Z,0.00
2018-03-21T04:40:38.389Z,0.00
2018-03-21T04:41:38.381Z,0.00
2018-03-21T04:42:38.376Z,0.00
2018-03-21T04:43:38.381Z,0.00
2018-03-21T04:44:38.383Z,0.00
2018-03-21T04:45:38.356Z,0.00
2018-03-21T04:46:38.364Z,0.00
2018-03-21T04:47:38.361Z,0.00
2018-03-21T04:48:38.355Z,0.00
2018-03-21T04:49:38.356Z,0.00
2018-03-21T04:50:38.339Z,0.00
2018-03-21T04:51:38.337Z,0.00
2018-03-21T04:52:38.324Z,0.00
2018-03-21T04:53:38.320Z,0.00
2018-03-21T04:54:38.322Z,0.00
2018-03-21T04:55:38.310Z,0.00
2018-03-21T04:56:38.309Z,0.00
2018-03-21T04:57:38.310Z,0.00
2018-03-21T04:58:38.295Z,0.00
2018-03-21T04:59:38.304Z,0.00
2018-03-21T05:00:38.282Z,0.00
2018-03-21T05:01:38.289Z,0.00
2018-03-21T05:02:38.272Z,0.00
2018-03-21T05:03:38.271Z,0.00
2018-03-21T05:04:38.260Z,0.00
2018-03-21T05:05:38.262Z,0.00
2018-03-21T05:06:38.259Z,0.00
2018-03-21T05:07:38.247Z,0.00
2018-03-21T05:08:38.245Z,0.00
2018-03-21T05:09:38.245Z,0.00
2018-03-21T05:10:38.226Z,0.00
2018-03-21T05:11:38.230Z,0.00
2018-03-21T05:12:38.225Z,0.00
2018-03-21T05:13:38.215Z,0.00
2018-03-21T05:14:38.216Z,0.00
2018-03-21T05:15:38.204Z,0.00
2018-03-21T05:16:38.199Z,0.00
2018-03-21T05:17:38.196Z,0.00
2018-03-21T05:18:38.190Z,0.00
2018-03-21T05:19:38.181Z,0.00
2018-03-21T05:20:38.184Z,0.00
2018-03-21T05:21:38.177Z,0.00
2018-03-21T05:22:38.162Z,0.00
2018-03-21T05:23:38.168Z,0.00
2018-03-21T05:24:38.155Z,0.00
2018-03-21T05:25:38.150Z,0.00
2018-03-21T05:26:38.145Z,4.00
2018-03-21T05:27:38.142Z,4.00
2018-03-21T05:28:38.141Z,4.00
2018-03-21T05:29:38.127Z,0.00
2018-03-21T05:30:38.126Z,0.00
2018-03-21T05:31:38.123Z,0.00
2018-03-21T05:32:38.110Z,0.00
2018-03-21T05:33:38.118Z,4.00
2018-03-21T05:34:38.099Z,4.00
2018-03-21T05:35:38.095Z,4.00
2018-03-21T05:36:38.100Z,4.00
2018-03-21T05:37:38.081Z,4.00
2018-03-21T05:38:38.077Z,4.00
2018-03-21T05:39:38.069Z,4.00
2018-03-21T05:40:38.072Z,8.00
2018-03-21T05:41:38.073Z,4.00
2018-03-21T05:42:38.065Z,4.00
2018-03-21T05:43:38.051Z,8.00
2018-03-21T05:44:38.050Z,4.00
2018-03-21T05:45:38.060Z,8.00
2018-03-21T05:46:38.056Z,8.00
2018-03-21T05:47:38.033Z,8.00
2018-03-21T05:48:38.040Z,8.00
2018-03-21T05:49:38.020Z,8.00
2018-03-21T05:50:38.011Z,12.00
2018-03-21T05:51:38.010Z,8.00
2018-03-21T05:52:38.006Z,12.00
2018-03-21T05:53:38.002Z,12.00
2018-03-21T05:54:37.998Z,12.00
2018-03-21T05:55:38.001Z,12.00
2018-03-21T05:56:37.983Z,12.00
2018-03-21T05:57:37.978Z,16.00
2018-03-21T05:58:37.979Z,12.00
2018-03-21T05:59:37.966Z,16.00
2018-03-21T06:00:37.963Z,16.00
2018-03-21T06:01:37.951Z,16.00
2018-03-21T06:02:37.951Z,20.00
2018-03-21T06:03:37.936Z,16.00
2018-03-21T06:04:37.941Z,20.00
2018-03-21T06:05:37.935Z,20.00
2018-03-21T06:06:37.935Z,20.00
2018-03-21T06:07:37.920Z,20.00
2018-03-21T06:08:37.927Z,24.00
2018-03-21T06:09:37.921Z,24.00
2018-03-21T06:10:37.923Z,28.00
2018-03-21T06:11:37.902Z,24.00
2018-03-21T06:12:37.902Z,24.00
2018-03-21T06:13:37.895Z,28.00
2018-03-21T06:14:37.888Z,28.00
2018-03-21T06:15:37.878Z,32.00
2018-03-21T06:16:37.876Z,32.00
2018-03-21T06:17:37.867Z,32.00
2018-03-21T06:18:37.868Z,32.00
2018-03-21T06:19:37.874Z,32.00
2018-03-21T06:20:37.862Z,36.00
2018-03-21T06:21:37.867Z,36.00
2018-03-21T06:22:37.841Z,36.00
2018-03-21T06:23:37.838Z,44.00
2018-03-21T06:24:37.841Z,48.00
2018-03-21T06:25:37.822Z,52.00
2018-03-21T06:26:37.820Z,56.00
2018-03-21T06:27:37.823Z,60.00
2018-03-21T06:28:37.813Z,64.00
2018-03-21T06:29:37.809Z,72.00
2018-03-21T06:30:37.812Z,88.00
2018-03-21T06:31:37.813Z,100.00
2018-03-21T06:32:37.783Z,108.00
2018-03-21T06:33:37.782Z,120.00
2018-03-21T06:34:37.778Z,136.00
2018-03-21T06:35:37.786Z,148.00
2018-03-21T06:36:37.770Z,168.00
2018-03-21T06:37:37.762Z,184.00
2018-03-21T06:38:37.763Z,200.00
2018-03-21T06:39:37.761Z,216.00
2018-03-21T06:40:37.747Z,232.00
2018-03-21T06:41:37.736Z,240.00
2018-03-21T06:42:37.741Z,240.00
2018-03-21T06:43:37.733Z,252.00
2018-03-21T06:44:37.757Z,264.00
2018-03-21T06:45:37.717Z,272.00
2018-03-21T06:46:37.709Z,276.00
2018-03-21T06:47:37.716Z,272.00
2018-03-21T06:48:37.700Z,268.00
2018-03-21T06:49:37.692Z,256.00
2018-03-21T06:50:37.683Z,252.00
2018-03-21T06:51:37.678Z,256.00
2018-03-21T06:52:37.683Z,264.00
2018-03-21T06:53:37.697Z,264.00
2018-03-21T06:54:37.667Z,272.00
2018-03-21T06:55:37.661Z,272.00
2018-03-21T06:56:37.647Z,272.00
2018-03-21T06:57:37.652Z,272.00
2018-03-21T06:58:37.649Z,268.00
2018-03-21T06:59:37.634Z,264.00
2018-03-21T07:00:37.633Z,272.00
2018-03-21T07:01:37.629Z,268.00
2018-03-21T07:02:37.624Z,280.00
2018-03-21T07:03:37.622Z,268.00
2018-03-21T07:04:37.654Z,284.00
2018-03-21T07:05:37.619Z,320.00
2018-03-21T07:06:37.599Z,352.00
2018-03-21T07:07:37.597Z,384.00
2018-03-21T07:08:37.596Z,380.00
2018-03-21T07:09:37.591Z,324.00
2018-03-21T07:10:37.588Z,224.00
2018-03-21T07:11:37.583Z,196.00
2018-03-21T07:12:37.582Z,88.00
2018-03-21T07:13:37.567Z,52.00
2018-03-21T07:14:37.554Z,32.00
2018-03-21T07:15:37.557Z,28.00
2018-03-21T07:16:37.547Z,24.00
2018-03-21T07:17:37.542Z,24.00
2018-03-21T07:18:37.550Z,20.00
2018-03-21T07:19:37.538Z,20.00
2018-03-21T07:20:37.531Z,20.00
2018-03-21T07:21:37.520Z,16.00
2018-03-21T07:22:37.524Z,16.00
2018-03-21T07:23:37.521Z,16.00
2018-03-21T07:24:37.509Z,16.00
2018-03-21T07:25:37.503Z,16.00
2018-03-21T07:26:37.504Z,16.00
2018-03-21T07:27:37.490Z,16.00
2018-03-21T07:28:37.487Z,16.00
2018-03-21T07:29:37.489Z,12.00
2018-03-21T07:30:37.488Z,16.00
2018-03-21T07:31:37.490Z,16.00
2018-03-21T07:32:37.484Z,16.00
2018-03-21T07:33:37.460Z,16.00
2018-03-21T07:34:37.470Z,12.00
2018-03-21T07:35:37.452Z,12.00
2018-03-21T07:36:37.453Z,16.00
2018-03-21T07:37:37.442Z,16.00
2018-03-21T07:38:37.437Z,16.00
2018-03-21T07:39:37.430Z,16.00
2018-03-21T07:40:37.422Z,12.00
2018-03-21T07:41:37.420Z,16.00
2018-03-21T07:42:37.428Z,16.00
2018-03-21T07:43:37.418Z,16.00
2018-03-21T07:44:37.408Z,16.00
2018-03-21T07:45:37.393Z,16.00
2018-03-21T07:46:37.408Z,16.00
2018-03-21T07:47:37.394Z,16.00
2018-03-21T07:48:37.374Z,12.00
2018-03-21T07:49:37.378Z,16.00
2018-03-21T07:50:37.373Z,16.00
2018-03-21T07:51:37.384Z,16.00
2018-03-21T07:52:37.373Z,16.00
2018-03-21T07:53:37.354Z,16.00
2018-03-21T07:54:37.355Z,16.00
2018-03-21T07:55:37.363Z,16.00
2018-03-21T07:56:37.345Z,20.00
2018-03-21T07:57:37.339Z,16.00
2018-03-21T07:58:37.329Z,20.00
2018-03-21T07:59:37.328Z,16.00
2018-03-21T08:00:37.313Z,20.00
2018-03-21T08:01:37.323Z,20.00
2018-03-21T08:02:37.323Z,16.00
2018-03-21T08:03:37.303Z,16.00
2018-03-21T08:04:37.298Z,20.00
2018-03-21T08:05:37.336Z,20.00
2018-03-21T08:06:37.290Z,16.00
2018-03-21T08:07:37.280Z,20.00
2018-03-21T08:08:37.292Z,20.00
2018-03-21T08:09:37.278Z,20.00
2018-03-21T08:10:37.269Z,20.00
2018-03-21T08:11:37.258Z,20.00
2018-03-21T08:12:37.261Z,24.00
2018-03-21T08:13:37.255Z,24.00
2018-03-21T08:14:37.254Z,20.00
2018-03-21T08:15:37.241Z,24.00
2018-03-21T08:16:37.244Z,24.00
2018-03-21T08:17:37.234Z,24.00
2018-03-21T08:18:37.221Z,24.00
2018-03-21T08:19:37.289Z,20.00
2018-03-21T08:20:37.211Z,20.00
2018-03-21T08:21:37.223Z,16.00
2018-03-21T08:22:37.200Z,20.00
2018-03-21T08:23:37.227Z,16.00
2018-03-21T08:24:37.185Z,20.00
2018-03-21T08:25:37.189Z,16.00
2018-03-21T08:26:37.175Z,20.00
2018-03-21T08:27:37.171Z,20.00
2018-03-21T08:28:37.182Z,20.00
2018-03-21T08:29:37.163Z,20.00
2018-03-21T08:30:37.167Z,20.00
2018-03-21T08:31:37.174Z,20.00
2018-03-21T08:32:37.139Z,20.00
2018-03-21T08:33:37.141Z,24.00
2018-03-21T08:34:37.133Z,24.00
2018-03-21T08:35:37.134Z,24.00
2018-03-21T08:36:37.124Z,24.00
2018-03-21T08:37:37.123Z,24.00
2018-03-21T08:38:37.121Z,24.00
2018-03-21T08:39:37.109Z,24.00
2018-03-21T08:40:37.110Z,20.00
2018-03-21T08:41:37.115Z,24.00
2018-03-21T08:42:37.096Z,20.00
2018-03-21T08:43:37.096Z,20.00
2018-03-21T08:44:37.085Z,20.00
2018-03-21T08:45:37.080Z,24.00
2018-03-21T08:46:37.071Z,20.00
2018-03-21T08:47:37.075Z,24.00
2018-03-21T08:48:37.060Z,24.00
2018-03-21T08:49:37.061Z,20.00
2018-03-21T08:50:37.055Z,24.00
2018-03-21T08:51:37.041Z,24.00
2018-03-21T08:52:37.041Z,24.00
2018-03-21T08:53:37.034Z,24.00
2018-03-21T08:54:37.047Z,24.00
2018-03-21T08:55:37.085Z,24.00
2018-03-21T08:56:37.025Z,20.00
2018-03-21T08:57:37.012Z,24.00
2018-03-21T08:58:37.007Z,24.00
2018-03-21T08:59:37.002Z,24.00
2018-03-21T09:00:36.991Z,24.00
2018-03-21T09:01:36.992Z,24.00
2018-03-21T09:02:36.981Z,20.00
2018-03-21T09:03:36.978Z,24.00
2018-03-21T09:04:37.001Z,24.00
2018-03-21T09:05:36.962Z,24.00
2018-03-21T09:06:36.971Z,28.00
2018-03-21T09:07:36.959Z,28.00
2018-03-21T09:08:36.974Z,28.00
2018-03-21T09:09:36.971Z,28.00
2018-03-21T09:10:36.942Z,32.00
2018-03-21T09:11:36.940Z,28.00
2018-03-21T09:12:36.933Z,28.00
2018-03-21T09:13:36.921Z,28.00
2018-03-21T09:14:36.916Z,32.00
2018-03-21T09:15:36.918Z,32.00
2018-03-21T09:16:36.911Z,28.00
2018-03-21T09:17:36.904Z,28.00
2018-03-21T09:18:36.905Z,28.00
2018-03-21T09:19:36.893Z,28.00
2018-03-21T09:20:36.912Z,32.00
2018-03-21T09:21:36.882Z,32.00
2018-03-21T09:22:36.876Z,32.00
2018-03-21T09:23:36.865Z,32.00
2018-03-21T09:24:36.864Z,36.00
2018-03-21T09:25:36.859Z,36.00
2018-03-21T09:26:36.864Z,40.00
2018-03-21T09:27:36.848Z,36.00
2018-03-21T09:28:36.845Z,36.00
2018-03-21T09:29:36.836Z,36.00
2018-03-21T09:30:36.832Z,40.00
2018-03-21T09:31:36.822Z,40.00
2018-03-21T09:32:36.822Z,40.00
2018-03-21T09:33:36.829Z,40.00
2018-03-21T09:34:36.819Z,40.00
2018-03-21T09:35:36.806Z,40.00
2018-03-21T09:36:36.797Z,36.00
2018-03-21T09:37:36.792Z,36.00
2018-03-21T09:38:36.794Z,36.00
2018-03-21T09:39:36.783Z,36.00
2018-03-21T09:40:36.795Z,44.00
2018-03-21T09:41:36.760Z,44.00
2018-03-21T09:42:36.771Z,44.00
2018-03-21T09:43:36.760Z,48.00
2018-03-21T09:44:36.749Z,52.00
2018-03-21T09:45:36.752Z,56.00
2018-03-21T09:46:36.745Z,60.00
2018-03-21T09:47:36.752Z,56.00
2018-03-21T09:48:36.786Z,52.00
2018-03-21T09:49:36.724Z,48.00
2018-03-21T09:50:36.723Z,48.00
2018-03-21T09:51:36.721Z,44.00
2018-03-21T09:52:36.717Z,40.00
2018-03-21T09:53:36.701Z,44.00
2018-03-21T09:54:36.706Z,40.00
2018-03-21T09:55:36.702Z,40.00
2018-03-21T09:56:36.698Z,40.00
2018-03-21T09:57:36.736Z,44.00
2018-03-21T09:58:36.695Z,40.00
2018-03-21T09:59:36.680Z,40.00
2018-03-21T10:00:36.678Z,44.00
2018-03-21T10:01:36.660Z,48.00
2018-03-21T10:02:36.666Z,52.00
2018-03-21T10:03:36.660Z,48.00
2018-03-21T10:04:36.664Z,44.00
2018-03-21T10:05:36.661Z,44.00
2018-03-21T10:06:36.638Z,40.00
2018-03-21T10:07:36.638Z,40.00
2018-03-21T10:08:36.624Z,40.00
2018-03-21T10:09:36.617Z,40.00
2018-03-21T10:10:36.637Z,40.00
2018-03-21T10:11:36.614Z,40.00
2018-03-21T10:12:36.607Z,36.00
2018-03-21T10:13:36.604Z,36.00
2018-03-21T10:14:36.602Z,36.00
2018-03-21T10:15:36.588Z,36.00
2018-03-21T10:16:36.582Z,36.00
2018-03-21T10:17:36.583Z,32.00
2018-03-21T10:18:36.581Z,32.00
2018-03-21T10:19:36.576Z,32.00
2018-03-21T10:20:36.570Z,32.00
2018-03-21T10:21:36.553Z,32.00
2018-03-21T10:22:36.548Z,32.00
2018-03-21T10:23:36.553Z,32.00
2018-03-21T10:24:36.556Z,28.00
2018-03-21T10:25:36.539Z,32.00
2018-03-21T10:26:36.556Z,28.00
2018-03-21T10:27:36.518Z,28.00
2018-03-21T10:28:36.523Z,28.00
2018-03-21T10:29:36.527Z,32.00
2018-03-21T10:30:36.509Z,32.00
2018-03-21T10:31:36.521Z,32.00
2018-03-21T10:32:36.503Z,32.00
2018-03-21T10:33:36.494Z,32.00
2018-03-21T10:34:36.503Z,32.00
2018-03-21T10:35:36.483Z,32.00
2018-03-21T10:36:36.475Z,32.00
2018-03-21T10:37:36.469Z,28.00
2018-03-21T10:38:36.482Z,28.00
2018-03-21T10:39:36.465Z,28.00
2018-03-21T10:40:36.462Z,28.00
2018-03-21T10:41:36.457Z,28.00
2018-03-21T10:42:36.453Z,28.00
2018-03-21T10:43:36.442Z,28.00
2018-03-21T10:44:36.432Z,28.00
2018-03-21T10:45:36.432Z,28.00
2018-03-21T10:46:36.413Z,28.00
2018-03-21T10:47:36.433Z,28.00
2018-03-21T10:48:36.414Z,28.00
2018-03-21T10:49:36.413Z,28.00
2018-03-21T10:50:36.413Z,32.00
2018-03-21T10:51:36.402Z,32.00
2018-03-21T10:52:39.036Z,32.00
2018-03-21T10:53:36.393Z,32.00
2018-03-21T10:54:36.389Z,28.00
2018-03-21T10:55:36.379Z,28.00
2018-03-21T10:56:36.362Z,28.00
2018-03-21T10:57:36.373Z,32.00
2018-03-21T10:58:36.358Z,32.00
2018-03-21T10:59:36.353Z,32.00
2018-03-21T11:00:36.344Z,32.00
2018-03-21T11:01:36.344Z,32.00
2018-03-21T11:02:36.355Z,32.00
2018-03-21T11:03:36.333Z,32.00
2018-03-21T11:04:36.327Z,32.00
2018-03-21T11:05:36.322Z,36.00
2018-03-21T11:06:36.319Z,36.00
2018-03-21T11:07:36.305Z,36.00
2018-03-21T11:08:36.303Z,36.00
2018-03-21T11:09:36.297Z,36.00
2018-03-21T11:10:36.293Z,36.00
2018-03-21T11:11:36.350Z,36.00
2018-03-21T11:12:36.278Z,32.00
2018-03-21T11:13:36.283Z,36.00
2018-03-21T11:14:36.265Z,36.00
2018-03-21T11:15:36.291Z,40.00
2018-03-21T11:16:36.261Z,40.00
2018-03-21T11:17:36.332Z,32.00
2018-03-21T11:18:36.247Z,36.00
2018-03-21T11:19:36.244Z,40.00
2018-03-21T11:20:36.234Z,40.00
2018-03-21T11:21:36.230Z,44.00
2018-03-21T11:22:36.222Z,40.00
2018-03-21T11:23:36.229Z,40.00
2018-03-21T11:24:36.231Z,40.00
2018-03-21T11:25:36.212Z,40.00
2018-03-21T11:26:36.212Z,36.00
2018-03-21T11:27:36.192Z,36.00
2018-03-21T11:28:36.197Z,32.00
2018-03-21T11:29:36.195Z,32.00
2018-03-21T11:30:36.193Z,32.00
2018-03-21T11:31:36.178Z,36.00
2018-03-21T11:32:36.174Z,32.00
2018-03-21T11:33:36.164Z,36.00
2018-03-21T11:34:36.168Z,36.00
2018-03-21T11:35:36.151Z,40.00
2018-03-21T11:36:36.153Z,40.00
2018-03-21T11:37:36.144Z,40.00
2018-03-21T11:38:36.143Z,40.00
2018-03-21T11:39:36.138Z,44.00
2018-03-21T11:40:36.127Z,48.00
2018-03-21T11:41:36.129Z,40.00
2018-03-21T11:42:36.120Z,40.00
2018-03-21T11:43:36.136Z,44.00
2018-03-21T11:44:36.098Z,48.00
2018-03-21T11:45:36.094Z,48.00
2018-03-21T11:46:36.108Z,48.00
2018-03-21T11:47:36.099Z,48.00
2018-03-21T11:48:36.124Z,48.00
2018-03-21T11:49:36.082Z,48.00
2018-03-21T11:50:36.078Z,48.00
2018-03-21T11:51:36.072Z,48.00
2018-03-21T11:52:36.065Z,52.00
2018-03-21T11:53:36.063Z,52.00
2018-03-21T11:54:36.058Z,52.00
2018-03-21T11:55:36.055Z,48.00
2018-03-21T11:56:36.050Z,44.00
2018-03-21T11:57:36.047Z,44.00
2018-03-21T11:58:36.041Z,44.00
2018-03-21T11:59:36.039Z,48.00
2018-03-21T12:00:36.024Z,48.00
2018-03-21T12:01:36.028Z,52.00
2018-03-21T12:02:36.015Z,52.00
2018-03-21T12:03:36.012Z,60.00
2018-03-21T12:04:36.017Z,60.00
2018-03-21T12:05:36.001Z,60.00
2018-03-21T12:06:35.999Z,56.00
2018-03-21T12:07:35.993Z,56.00
2018-03-21T12:08:36.070Z,56.00
2018-03-21T12:09:35.985Z,56.00
2018-03-21T12:10:35.957Z,56.00
2018-03-21T12:11:35.956Z,56.00
2018-03-21T12:12:35.954Z,52.00
2018-03-21T12:13:35.958Z,52.00
2018-03-21T12:14:36.007Z,52.00
2018-03-21T12:15:35.939Z,52.00
2018-03-21T12:16:35.935Z,48.00
2018-03-21T12:17:35.933Z,48.00
2018-03-21T12:18:35.930Z,48.00
2018-03-21T12:19:35.937Z,52.00
2018-03-21T12:20:35.918Z,48.00
2018-03-21T12:21:35.910Z,52.00
2018-03-21T12:22:35.917Z,52.00
2018-03-21T12:23:35.902Z,56.00
2018-03-21T12:24:35.884Z,60.00
2018-03-21T12:25:35.892Z,64.00
2018-03-21T12:26:35.890Z,64.00
2018-03-21T12:27:35.881Z,64.00
2018-03-21T12:28:35.891Z,68.00
2018-03-21T12:29:35.876Z,76.00
2018-03-21T12:30:35.880Z,80.00
2018-03-21T12:31:35.859Z,100.00
2018-03-21T12:32:35.845Z,124.00
2018-03-21T12:33:35.845Z,112.00
2018-03-21T12:34:35.839Z,104.00
2018-03-21T12:35:35.848Z,104.00
2018-03-21T12:36:35.833Z,108.00
2018-03-21T12:37:35.830Z,108.00
2018-03-21T12:38:35.828Z,112.00
2018-03-21T12:39:35.819Z,104.00
2018-03-21T12:40:35.820Z,104.00
2018-03-21T12:41:35.808Z,100.00
2018-03-21T12:42:35.793Z,104.00
2018-03-21T12:43:35.784Z,100.00
2018-03-21T12:44:35.809Z,96.00
2018-03-21T12:45:35.786Z,96.00
2018-03-21T12:46:35.784Z,92.00
2018-03-21T12:47:35.772Z,88.00
2018-03-21T12:48:35.784Z,88.00
2018-03-21T12:49:35.779Z,80.00
2018-03-21T12:50:35.769Z,80.00
2018-03-21T12:51:35.759Z,68.00
2018-03-21T12:52:35.745Z,64.00
2018-03-21T12:53:35.740Z,60.00
2018-03-21T12:54:35.755Z,60.00
2018-03-21T12:55:35.730Z,60.00
2018-03-21T12:56:35.720Z,52.00
2018-03-21T12:57:35.720Z,52.00
2018-03-21T12:58:35.711Z,56.00
2018-03-21T12:59:35.703Z,56.00
2018-03-21T13:00:35.699Z,56.00
2018-03-21T13:01:35.762Z,56.00
2018-03-21T13:02:35.686Z,64.00